sensor_id;sensor_type;location;lat;lon;timestamp;pressure;altitude;pressure_sealevel;temperature
73937;BMP180;59249;59.736;30.568;2022-08-18T00:00:00;101452.00;;;21.10
73937;BMP180;59249;59.736;30.568;2022-08-18T00:02:46;101456.00;;;21.10
73937;BMP180;59249;59.736;30.568;2022-08-18T00:05:33;101446.00;;;21.00
73937;BMP180;59249;59.736;30.568;2022-08-18T00:08:05;101450.00;;;20.90
73937;BMP180;59249;59.736;30.568;2022-08-18T00:10:34;101447.00;;;20.90
73937;BMP180;59249;59.736;30.568;2022-08-18T00:13:03;101452.00;;;20.90
73937;BMP180;59249;59.736;30.568;2022-08-18T00:15:32;101457.00;;;20.80
73937;BMP180;59249;59.736;30.568;2022-08-18T00:18:08;101452.00;;;20.80
73937;BMP180;59249;59.736;30.568;2022-08-18T00:20:39;101454.00;;;20.80
73937;BMP180;59249;59.736;30.568;2022-08-18T00:23:08;101452.00;;;20.80
73937;BMP180;59249;59.736;30.568;2022-08-18T00:25:37;101453.00;;;20.90
73937;BMP180;59249;59.736;30.568;2022-08-18T00:28:06;101458.00;;;20.90
73937;BMP180;59249;59.736;30.568;2022-08-18T00:30:35;101457.00;;;20.80
73937;BMP180;59249;59.736;30.568;2022-08-18T00:33:04;101452.00;;;20.80
73937;BMP180;59249;59.736;30.568;2022-08-18T00:35:34;101451.00;;;20.80
73937;BMP180;59249;59.736;30.568;2022-08-18T00:38:07;101442.00;;;20.70
73937;BMP180;59249;59.736;30.568;2022-08-18T00:40:54;101448.00;;;20.70
73937;BMP180;59249;59.736;30.568;2022-08-18T00:43:29;101453.00;;;20.60
73937;BMP180;59249;59.736;30.568;2022-08-18T00:46:06;101449.00;;;20.60
73937;BMP180;59249;59.736;30.568;2022-08-18T00:48:36;101451.00;;;20.60
73937;BMP180;59249;59.736;30.568;2022-08-18T00:51:09;101445.00;;;20.60
73937;BMP180;59249;59.736;30.568;2022-08-18T00:53:44;101450.00;;;20.60
73937;BMP180;59249;59.736;30.568;2022-08-18T00:56:20;101445.00;;;20.50
73937;BMP180;59249;59.736;30.568;2022-08-18T00:58:54;101455.00;;;20.40
73937;BMP180;59249;59.736;30.568;2022-08-18T01:01:30;101451.00;;;20.40
73937;BMP180;59249;59.736;30.568;2022-08-18T01:04:03;101444.00;;;20.40
73937;BMP180;59249;59.736;30.568;2022-08-18T01:06:39;101448.00;;;20.30
73937;BMP180;59249;59.736;30.568;2022-08-18T01:09:14;101445.00;;;20.40
73937;BMP180;59249;59.736;30.568;2022-08-18T01:11:44;101449.00;;;20.40
73937;BMP180;59249;59.736;30.568;2022-08-18T01:14:14;101442.00;;;20.40
73937;BMP180;59249;59.736;30.568;2022-08-18T01:16:44;101436.00;;;20.50
73937;BMP180;59249;59.736;30.568;2022-08-18T01:19:32;101445.00;;;20.40
73937;BMP180;59249;59.736;30.568;2022-08-18T01:22:25;101442.00;;;20.40
73937;BMP180;59249;59.736;30.568;2022-08-18T01:24:59;101446.00;;;20.40
73937;BMP180;59249;59.736;30.568;2022-08-18T01:27:51;101450.00;;;20.40
73937;BMP180;59249;59.736;30.568;2022-08-18T01:30:27;101449.00;;;20.40
73937;BMP180;59249;59.736;30.568;2022-08-18T01:32:58;101450.00;;;20.40
73937;BMP180;59249;59.736;30.568;2022-08-18T01:35:27;101450.00;;;20.40
73937;BMP180;59249;59.736;30.568;2022-08-18T01:42:41;101455.00;;;20.30
73937;BMP180;59249;59.736;30.568;2022-08-18T01:45:12;101456.00;;;20.30
73937;BMP180;59249;59.736;30.568;2022-08-18T01:47:43;101458.00;;;20.30
73937;BMP180;59249;59.736;30.568;2022-08-18T01:50:15;101457.00;;;20.30
73937;BMP180;59249;59.736;30.568;2022-08-18T01:52:44;101457.00;;;20.30
73937;BMP180;59249;59.736;30.568;2022-08-18T01:55:13;101455.00;;;20.30
73937;BMP180;59249;59.736;30.568;2022-08-18T01:57:46;101448.00;;;20.20
73937;BMP180;59249;59.736;30.568;2022-08-18T02:00:16;101452.00;;;20.20
73937;BMP180;59249;59.736;30.568;2022-08-18T02:02:46;101446.00;;;20.20
73937;BMP180;59249;59.736;30.568;2022-08-18T02:05:32;101449.00;;;20.20
73937;BMP180;59249;59.736;30.568;2022-08-18T02:08:04;101456.00;;;20.20
73937;BMP180;59249;59.736;30.568;2022-08-18T02:10:33;101454.00;;;20.20
73937;BMP180;59249;59.736;30.568;2022-08-18T02:13:04;101459.00;;;20.10
73937;BMP180;59249;59.736;30.568;2022-08-18T02:15:33;101455.00;;;20.00
73937;BMP180;59249;59.736;30.568;2022-08-18T02:18:02;101460.00;;;20.10
73937;BMP180;59249;59.736;30.568;2022-08-18T02:20:31;101457.00;;;20.10
73937;BMP180;59249;59.736;30.568;2022-08-18T02:23:00;101453.00;;;20.10
73937;BMP180;59249;59.736;30.568;2022-08-18T02:25:29;101458.00;;;20.10
73937;BMP180;59249;59.736;30.568;2022-08-18T02:27:58;101457.00;;;20.10
73937;BMP180;59249;59.736;30.568;2022-08-18T02:30:28;101457.00;;;20.10
73937;BMP180;59249;59.736;30.568;2022-08-18T02:32:57;101458.00;;;20.10
73937;BMP180;59249;59.736;30.568;2022-08-18T02:35:26;101461.00;;;20.10
73937;BMP180;59249;59.736;30.568;2022-08-18T02:37:57;101464.00;;;20.10
73937;BMP180;59249;59.736;30.568;2022-08-18T02:40:29;101466.00;;;20.10
73937;BMP180;59249;59.736;30.568;2022-08-18T02:43:05;101459.00;;;20.20
73937;BMP180;59249;59.736;30.568;2022-08-18T02:45:37;101463.00;;;20.20
73937;BMP180;59249;59.736;30.568;2022-08-18T02:48:06;101456.00;;;20.20
73937;BMP180;59249;59.736;30.568;2022-08-18T02:50:36;101456.00;;;20.20
73937;BMP180;59249;59.736;30.568;2022-08-18T02:53:12;101456.00;;;20.30
73937;BMP180;59249;59.736;30.568;2022-08-18T02:55:45;101458.00;;;20.30
73937;BMP180;59249;59.736;30.568;2022-08-18T02:58:15;101462.00;;;20.20
73937;BMP180;59249;59.736;30.568;2022-08-18T03:00:48;101462.00;;;20.20
73937;BMP180;59249;59.736;30.568;2022-08-18T03:03:16;101469.00;;;20.20
73937;BMP180;59249;59.736;30.568;2022-08-18T03:05:45;101472.00;;;20.20
73937;BMP180;59249;59.736;30.568;2022-08-18T03:08:14;101474.00;;;20.20
73937;BMP180;59249;59.736;30.568;2022-08-18T03:10:43;101474.00;;;20.30
73937;BMP180;59249;59.736;30.568;2022-08-18T03:13:12;101482.00;;;20.30
73937;BMP180;59249;59.736;30.568;2022-08-18T03:15:41;101481.00;;;20.40
73937;BMP180;59249;59.736;30.568;2022-08-18T03:18:12;101483.00;;;20.40
73937;BMP180;59249;59.736;30.568;2022-08-18T03:20:41;101482.00;;;20.40
73937;BMP180;59249;59.736;30.568;2022-08-18T03:23:13;101473.00;;;20.50
73937;BMP180;59249;59.736;30.568;2022-08-18T03:25:43;101485.00;;;20.50
73937;BMP180;59249;59.736;30.568;2022-08-18T03:28:14;101491.00;;;20.50
73937;BMP180;59249;59.736;30.568;2022-08-18T03:30:44;101488.00;;;20.40
73937;BMP180;59249;59.736;30.568;2022-08-18T03:33:14;101492.00;;;20.40
73937;BMP180;59249;59.736;30.568;2022-08-18T03:35:43;101496.00;;;20.40
73937;BMP180;59249;59.736;30.568;2022-08-18T03:38:12;101485.00;;;20.30
73937;BMP180;59249;59.736;30.568;2022-08-18T03:40:41;101489.00;;;20.30
73937;BMP180;59249;59.736;30.568;2022-08-18T03:43:09;101485.00;;;20.40
73937;BMP180;59249;59.736;30.568;2022-08-18T03:45:59;101489.00;;;20.40
73937;BMP180;59249;59.736;30.568;2022-08-18T03:48:31;101481.00;;;20.40
73937;BMP180;59249;59.736;30.568;2022-08-18T03:51:02;101479.00;;;20.40
73937;BMP180;59249;59.736;30.568;2022-08-18T03:53:32;101478.00;;;20.30
73937;BMP180;59249;59.736;30.568;2022-08-18T03:56:06;101476.00;;;20.30
73937;BMP180;59249;59.736;30.568;2022-08-18T03:58:45;101480.00;;;20.20
73937;BMP180;59249;59.736;30.568;2022-08-18T04:01:20;101481.00;;;20.20
73937;BMP180;59249;59.736;30.568;2022-08-18T04:03:56;101479.00;;;20.30
73937;BMP180;59249;59.736;30.568;2022-08-18T04:06:30;101477.00;;;20.20
73937;BMP180;59249;59.736;30.568;2022-08-18T04:09:04;101484.00;;;20.30
73937;BMP180;59249;59.736;30.568;2022-08-18T04:11:35;101487.00;;;20.30
73937;BMP180;59249;59.736;30.568;2022-08-18T04:14:05;101483.00;;;20.30
73937;BMP180;59249;59.736;30.568;2022-08-18T04:16:34;101485.00;;;20.30
73937;BMP180;59249;59.736;30.568;2022-08-18T04:19:06;101492.00;;;20.30
73937;BMP180;59249;59.736;30.568;2022-08-18T04:21:37;101494.00;;;20.40
73937;BMP180;59249;59.736;30.568;2022-08-18T04:24:09;101496.00;;;20.40
73937;BMP180;59249;59.736;30.568;2022-08-18T04:26:42;101500.00;;;20.40
73937;BMP180;59249;59.736;30.568;2022-08-18T04:29:13;101506.00;;;20.50
73937;BMP180;59249;59.736;30.568;2022-08-18T04:31:44;101506.00;;;20.60
73937;BMP180;59249;59.736;30.568;2022-08-18T04:34:15;101509.00;;;20.60
73937;BMP180;59249;59.736;30.568;2022-08-18T04:36:43;101514.00;;;20.60
73937;BMP180;59249;59.736;30.568;2022-08-18T04:39:12;101512.00;;;20.70
73937;BMP180;59249;59.736;30.568;2022-08-18T04:41:42;101516.00;;;20.70
73937;BMP180;59249;59.736;30.568;2022-08-18T04:44:14;101510.00;;;20.70
73937;BMP180;59249;59.736;30.568;2022-08-18T04:46:46;101519.00;;;20.60
73937;BMP180;59249;59.736;30.568;2022-08-18T04:49:17;101508.00;;;20.50
73937;BMP180;59249;59.736;30.568;2022-08-18T04:51:49;101509.00;;;20.60
73937;BMP180;59249;59.736;30.568;2022-08-18T04:54:52;101504.00;;;20.80
73937;BMP180;59249;59.736;30.568;2022-08-18T04:57:21;101504.00;;;20.60
73937;BMP180;59249;59.736;30.568;2022-08-18T04:59:50;101509.00;;;20.80
73937;BMP180;59249;59.736;30.568;2022-08-18T05:02:20;101514.00;;;20.90
73937;BMP180;59249;59.736;30.568;2022-08-18T05:04:51;101513.00;;;21.00
73937;BMP180;59249;59.736;30.568;2022-08-18T05:07:20;101511.00;;;21.10
73937;BMP180;59249;59.736;30.568;2022-08-18T05:09:50;101508.00;;;21.20
73937;BMP180;59249;59.736;30.568;2022-08-18T05:12:21;101508.00;;;21.40
73937;BMP180;59249;59.736;30.568;2022-08-18T05:14:53;101511.00;;;21.60
73937;BMP180;59249;59.736;30.568;2022-08-18T05:17:24;101520.00;;;21.70
73937;BMP180;59249;59.736;30.568;2022-08-18T05:19:57;101518.00;;;21.90
73937;BMP180;59249;59.736;30.568;2022-08-18T05:22:35;101524.00;;;21.90
73937;BMP180;59249;59.736;30.568;2022-08-18T05:25:06;101519.00;;;22.00
73937;BMP180;59249;59.736;30.568;2022-08-18T05:27:39;101527.00;;;22.00
73937;BMP180;59249;59.736;30.568;2022-08-18T05:30:10;101529.00;;;22.00
73937;BMP180;59249;59.736;30.568;2022-08-18T05:32:44;101524.00;;;22.10
73937;BMP180;59249;59.736;30.568;2022-08-18T05:35:22;101528.00;;;22.10
73937;BMP180;59249;59.736;30.568;2022-08-18T05:38:09;101530.00;;;22.30
73937;BMP180;59249;59.736;30.568;2022-08-18T05:41:14;101527.00;;;22.40
73937;BMP180;59249;59.736;30.568;2022-08-18T05:43:51;101521.00;;;22.40
73937;BMP180;59249;59.736;30.568;2022-08-18T05:46:23;101523.00;;;22.50
73937;BMP180;59249;59.736;30.568;2022-08-18T05:49:04;101515.00;;;22.50
73937;BMP180;59249;59.736;30.568;2022-08-18T05:51:38;101520.00;;;22.50
73937;BMP180;59249;59.736;30.568;2022-08-18T05:54:10;101519.00;;;22.60
73937;BMP180;59249;59.736;30.568;2022-08-18T05:57:09;101519.00;;;22.60
73937;BMP180;59249;59.736;30.568;2022-08-18T05:59:43;101524.00;;;22.70
73937;BMP180;59249;59.736;30.568;2022-08-18T06:02:17;101523.00;;;22.80
73937;BMP180;59249;59.736;30.568;2022-08-18T06:05:05;101533.00;;;22.90
73937;BMP180;59249;59.736;30.568;2022-08-18T06:07:41;101531.00;;;23.00
73937;BMP180;59249;59.736;30.568;2022-08-18T06:10:38;101538.00;;;23.10
73937;BMP180;59249;59.736;30.568;2022-08-18T06:13:13;101530.00;;;23.30
73937;BMP180;59249;59.736;30.568;2022-08-18T06:15:50;101527.00;;;23.50
73937;BMP180;59249;59.736;30.568;2022-08-18T06:18:42;101532.00;;;23.60
73937;BMP180;59249;59.736;30.568;2022-08-18T06:21:33;101537.00;;;23.60
73937;BMP180;59249;59.736;30.568;2022-08-18T06:24:16;101538.00;;;23.60
73937;BMP180;59249;59.736;30.568;2022-08-18T06:27:00;101535.00;;;23.70
73937;BMP180;59249;59.736;30.568;2022-08-18T06:29:45;101541.00;;;23.70
73937;BMP180;59249;59.736;30.568;2022-08-18T06:32:30;101543.00;;;23.90
73937;BMP180;59249;59.736;30.568;2022-08-18T06:35:15;101537.00;;;23.90
73937;BMP180;59249;59.736;30.568;2022-08-18T06:37:58;101540.00;;;24.10
73937;BMP180;59249;59.736;30.568;2022-08-18T06:41:02;101541.00;;;24.10
73937;BMP180;59249;59.736;30.568;2022-08-18T06:43:59;101533.00;;;24.20
73937;BMP180;59249;59.736;30.568;2022-08-18T06:46:37;101537.00;;;24.30
73937;BMP180;59249;59.736;30.568;2022-08-18T06:49:10;101546.00;;;24.40
73937;BMP180;59249;59.736;30.568;2022-08-18T06:51:46;101549.00;;;24.30
73937;BMP180;59249;59.736;30.568;2022-08-18T06:54:26;101545.00;;;24.30
73937;BMP180;59249;59.736;30.568;2022-08-18T06:56:58;101535.00;;;24.50
73937;BMP180;59249;59.736;30.568;2022-08-18T06:59:28;101542.00;;;24.60
73937;BMP180;59249;59.736;30.568;2022-08-18T07:02:02;101549.00;;;24.50
73937;BMP180;59249;59.736;30.568;2022-08-18T07:04:58;101546.00;;;24.50
73937;BMP180;59249;59.736;30.568;2022-08-18T07:07:34;101549.00;;;24.70
73937;BMP180;59249;59.736;30.568;2022-08-18T07:10:29;101539.00;;;24.80
73937;BMP180;59249;59.736;30.568;2022-08-18T07:13:23;101547.00;;;25.00
73937;BMP180;59249;59.736;30.568;2022-08-18T07:15:55;101535.00;;;25.00
73937;BMP180;59249;59.736;30.568;2022-08-18T07:19:06;101546.00;;;24.90
73937;BMP180;59249;59.736;30.568;2022-08-18T07:21:37;101556.00;;;25.10
73937;BMP180;59249;59.736;30.568;2022-08-18T07:24:09;101552.00;;;24.90
73937;BMP180;59249;59.736;30.568;2022-08-18T07:27:00;101561.00;;;25.00
73937;BMP180;59249;59.736;30.568;2022-08-18T07:29:35;101557.00;;;25.00
73937;BMP180;59249;59.736;30.568;2022-08-18T07:32:10;101560.00;;;24.90
73937;BMP180;59249;59.736;30.568;2022-08-18T07:34:49;101562.00;;;25.20
73937;BMP180;59249;59.736;30.568;2022-08-18T07:37:28;101561.00;;;25.20
73937;BMP180;59249;59.736;30.568;2022-08-18T07:40:03;101565.00;;;25.40
73937;BMP180;59249;59.736;30.568;2022-08-18T07:42:45;101563.00;;;25.50
73937;BMP180;59249;59.736;30.568;2022-08-18T07:45:32;101568.00;;;25.60
73937;BMP180;59249;59.736;30.568;2022-08-18T07:48:09;101566.00;;;25.60
73937;BMP180;59249;59.736;30.568;2022-08-18T07:51:10;101574.00;;;25.70
73937;BMP180;59249;59.736;30.568;2022-08-18T07:53:50;101569.00;;;25.80
73937;BMP180;59249;59.736;30.568;2022-08-18T07:56:32;101571.00;;;25.80
73937;BMP180;59249;59.736;30.568;2022-08-18T07:59:17;101578.00;;;25.80
73937;BMP180;59249;59.736;30.568;2022-08-18T08:01:59;101576.00;;;25.90
73937;BMP180;59249;59.736;30.568;2022-08-18T08:04:48;101569.00;;;26.10
73937;BMP180;59249;59.736;30.568;2022-08-18T08:07:29;101571.00;;;26.10
73937;BMP180;59249;59.736;30.568;2022-08-18T08:10:29;101564.00;;;26.20
73937;BMP180;59249;59.736;30.568;2022-08-18T08:14:04;101575.00;;;26.20
73937;BMP180;59249;59.736;30.568;2022-08-18T08:16:44;101574.00;;;26.40
73937;BMP180;59249;59.736;30.568;2022-08-18T08:19:40;101581.00;;;26.60
73937;BMP180;59249;59.736;30.568;2022-08-18T08:22:36;101582.00;;;26.80
73937;BMP180;59249;59.736;30.568;2022-08-18T08:25:14;101588.00;;;26.90
73937;BMP180;59249;59.736;30.568;2022-08-18T08:29:11;101586.00;;;27.00
73937;BMP180;59249;59.736;30.568;2022-08-18T08:31:58;101590.00;;;27.00
73937;BMP180;59249;59.736;30.568;2022-08-18T08:34:35;101583.00;;;27.10
73937;BMP180;59249;59.736;30.568;2022-08-18T08:37:15;101587.00;;;27.20
73937;BMP180;59249;59.736;30.568;2022-08-18T08:39:53;101587.00;;;27.30
73937;BMP180;59249;59.736;30.568;2022-08-18T08:42:36;101590.00;;;27.30
73937;BMP180;59249;59.736;30.568;2022-08-18T08:45:15;101592.00;;;27.50
73937;BMP180;59249;59.736;30.568;2022-08-18T08:47:56;101593.00;;;27.50
73937;BMP180;59249;59.736;30.568;2022-08-18T08:50:40;101589.00;;;27.70
73937;BMP180;59249;59.736;30.568;2022-08-18T08:53:19;101592.00;;;27.80
73937;BMP180;59249;59.736;30.568;2022-08-18T08:55:56;101594.00;;;27.90
73937;BMP180;59249;59.736;30.568;2022-08-18T08:58:39;101600.00;;;28.00
73937;BMP180;59249;59.736;30.568;2022-08-18T09:01:22;101598.00;;;28.00
73937;BMP180;59249;59.736;30.568;2022-08-18T09:04:01;101596.00;;;28.10
73937;BMP180;59249;59.736;30.568;2022-08-18T09:06:51;101598.00;;;28.20
73937;BMP180;59249;59.736;30.568;2022-08-18T09:09:43;101594.00;;;28.20
73937;BMP180;59249;59.736;30.568;2022-08-18T09:12:37;101597.00;;;28.30
73937;BMP180;59249;59.736;30.568;2022-08-18T09:15:34;101599.00;;;28.30
73937;BMP180;59249;59.736;30.568;2022-08-18T09:18:29;101603.00;;;28.40
73937;BMP180;59249;59.736;30.568;2022-08-18T09:21:33;101605.00;;;28.50
73937;BMP180;59249;59.736;30.568;2022-08-18T09:24:19;101606.00;;;28.60
73937;BMP180;59249;59.736;30.568;2022-08-18T09:27:25;101602.00;;;28.50
73937;BMP180;59249;59.736;30.568;2022-08-18T09:30:42;101603.00;;;28.70
73937;BMP180;59249;59.736;30.568;2022-08-18T09:33:25;101606.00;;;28.70
73937;BMP180;59249;59.736;30.568;2022-08-18T09:36:19;101589.00;;;28.80
73937;BMP180;59249;59.736;30.568;2022-08-18T09:39:00;101598.00;;;28.90
73937;BMP180;59249;59.736;30.568;2022-08-18T09:42:07;101589.00;;;29.00
73937;BMP180;59249;59.736;30.568;2022-08-18T09:45:00;101599.00;;;29.10
73937;BMP180;59249;59.736;30.568;2022-08-18T09:54:14;101593.00;;;29.40
73937;BMP180;59249;59.736;30.568;2022-08-18T09:57:19;101606.00;;;29.40
73937;BMP180;59249;59.736;30.568;2022-08-18T10:03:22;101608.00;;;29.60
73937;BMP180;59249;59.736;30.568;2022-08-18T10:06:14;101618.00;;;29.50
73937;BMP180;59249;59.736;30.568;2022-08-18T10:09:03;101612.00;;;29.60
73937;BMP180;59249;59.736;30.568;2022-08-18T10:12:21;101609.00;;;29.70
73937;BMP180;59249;59.736;30.568;2022-08-18T10:15:18;101615.00;;;29.60
73937;BMP180;59249;59.736;30.568;2022-08-18T10:18:35;101626.00;;;29.50
73937;BMP180;59249;59.736;30.568;2022-08-18T10:21:14;101616.00;;;29.60
73937;BMP180;59249;59.736;30.568;2022-08-18T10:23:55;101617.00;;;29.70
73937;BMP180;59249;59.736;30.568;2022-08-18T10:27:10;101614.00;;;29.80
73937;BMP180;59249;59.736;30.568;2022-08-18T10:30:05;101613.00;;;29.90
73937;BMP180;59249;59.736;30.568;2022-08-18T10:32:43;101597.00;;;29.90
73937;BMP180;59249;59.736;30.568;2022-08-18T10:38:43;101612.00;;;29.80
73937;BMP180;59249;59.736;30.568;2022-08-18T10:41:24;101612.00;;;29.90
73937;BMP180;59249;59.736;30.568;2022-08-18T10:43:59;101602.00;;;30.00
73937;BMP180;59249;59.736;30.568;2022-08-18T10:46:49;101603.00;;;29.90
73937;BMP180;59249;59.736;30.568;2022-08-18T10:49:24;101613.00;;;30.00
73937;BMP180;59249;59.736;30.568;2022-08-18T10:52:20;101615.00;;;30.10
73937;BMP180;59249;59.736;30.568;2022-08-18T10:55:44;101616.00;;;30.20
73937;BMP180;59249;59.736;30.568;2022-08-18T10:58:26;101621.00;;;30.30
73937;BMP180;59249;59.736;30.568;2022-08-18T11:01:28;101623.00;;;30.30
73937;BMP180;59249;59.736;30.568;2022-08-18T11:04:24;101621.00;;;30.40
73937;BMP180;59249;59.736;30.568;2022-08-18T11:07:15;101626.00;;;30.50
73937;BMP180;59249;59.736;30.568;2022-08-18T11:09:50;101622.00;;;30.60
73937;BMP180;59249;59.736;30.568;2022-08-18T11:12:55;101630.00;;;30.80
73937;BMP180;59249;59.736;30.568;2022-08-18T11:15:41;101623.00;;;30.70
73937;BMP180;59249;59.736;30.568;2022-08-18T11:18:30;101621.00;;;30.80
73937;BMP180;59249;59.736;30.568;2022-08-18T11:21:33;101628.00;;;30.70
73937;BMP180;59249;59.736;30.568;2022-08-18T11:24:12;101620.00;;;30.80
73937;BMP180;59249;59.736;30.568;2022-08-18T11:26:45;101623.00;;;30.90
73937;BMP180;59249;59.736;30.568;2022-08-18T11:29:30;101629.00;;;31.00
73937;BMP180;59249;59.736;30.568;2022-08-18T11:32:09;101632.00;;;31.00
73937;BMP180;59249;59.736;30.568;2022-08-18T11:34:46;101632.00;;;31.10
73937;BMP180;59249;59.736;30.568;2022-08-18T11:37:25;101632.00;;;31.10
73937;BMP180;59249;59.736;30.568;2022-08-18T11:40:30;101624.00;;;31.20
73937;BMP180;59249;59.736;30.568;2022-08-18T11:43:25;101633.00;;;31.20
73937;BMP180;59249;59.736;30.568;2022-08-18T11:46:15;101630.00;;;31.20
73937;BMP180;59249;59.736;30.568;2022-08-18T11:48:59;101632.00;;;31.20
73937;BMP180;59249;59.736;30.568;2022-08-18T11:51:55;101637.00;;;31.30
73937;BMP180;59249;59.736;30.568;2022-08-18T11:54:38;101639.00;;;31.40
73937;BMP180;59249;59.736;30.568;2022-08-18T11:57:48;101641.00;;;31.40
73937;BMP180;59249;59.736;30.568;2022-08-18T12:00:56;101652.00;;;31.40
73937;BMP180;59249;59.736;30.568;2022-08-18T12:03:36;101641.00;;;31.50
73937;BMP180;59249;59.736;30.568;2022-08-18T12:06:26;101638.00;;;31.50
73937;BMP180;59249;59.736;30.568;2022-08-18T12:09:00;101642.00;;;31.50
73937;BMP180;59249;59.736;30.568;2022-08-18T12:11:34;101641.00;;;31.60
73937;BMP180;59249;59.736;30.568;2022-08-18T12:14:17;101635.00;;;31.60
73937;BMP180;59249;59.736;30.568;2022-08-18T12:17:09;101644.00;;;31.80
73937;BMP180;59249;59.736;30.568;2022-08-18T12:19:38;101640.00;;;31.90
73937;BMP180;59249;59.736;30.568;2022-08-18T12:22:14;101637.00;;;32.00
73937;BMP180;59249;59.736;30.568;2022-08-18T12:24:45;101637.00;;;32.10
73937;BMP180;59249;59.736;30.568;2022-08-18T12:27:17;101634.00;;;32.00
73937;BMP180;59249;59.736;30.568;2022-08-18T12:29:50;101638.00;;;32.00
73937;BMP180;59249;59.736;30.568;2022-08-18T12:32:25;101634.00;;;32.00
73937;BMP180;59249;59.736;30.568;2022-08-18T12:35:15;101629.00;;;32.20
73937;BMP180;59249;59.736;30.568;2022-08-18T12:37:48;101633.00;;;32.00
73937;BMP180;59249;59.736;30.568;2022-08-18T12:40:26;101633.00;;;32.10
73937;BMP180;59249;59.736;30.568;2022-08-18T12:42:57;101631.00;;;32.20
73937;BMP180;59249;59.736;30.568;2022-08-18T12:45:26;101635.00;;;32.20
73937;BMP180;59249;59.736;30.568;2022-08-18T12:47:57;101635.00;;;32.10
73937;BMP180;59249;59.736;30.568;2022-08-18T12:50:30;101632.00;;;32.10
73937;BMP180;59249;59.736;30.568;2022-08-18T12:53:09;101628.00;;;32.00
73937;BMP180;59249;59.736;30.568;2022-08-18T12:55:40;101625.00;;;31.90
73937;BMP180;59249;59.736;30.568;2022-08-18T12:58:13;101629.00;;;32.00
73937;BMP180;59249;59.736;30.568;2022-08-18T13:00:42;101632.00;;;32.00
73937;BMP180;59249;59.736;30.568;2022-08-18T13:03:13;101623.00;;;31.90
73937;BMP180;59249;59.736;30.568;2022-08-18T13:05:44;101624.00;;;31.90
73937;BMP180;59249;59.736;30.568;2022-08-18T13:08:17;101622.00;;;31.90
73937;BMP180;59249;59.736;30.568;2022-08-18T13:11:07;101628.00;;;31.90
73937;BMP180;59249;59.736;30.568;2022-08-18T13:13:53;101628.00;;;32.00
73937;BMP180;59249;59.736;30.568;2022-08-18T13:16:28;101629.00;;;32.10
73937;BMP180;59249;59.736;30.568;2022-08-18T13:19:21;101626.00;;;32.10
73937;BMP180;59249;59.736;30.568;2022-08-18T13:21:58;101639.00;;;32.20
73937;BMP180;59249;59.736;30.568;2022-08-18T13:24:26;101622.00;;;32.40
73937;BMP180;59249;59.736;30.568;2022-08-18T13:26:55;101625.00;;;32.40
73937;BMP180;59249;59.736;30.568;2022-08-18T13:29:25;101630.00;;;32.60
73937;BMP180;59249;59.736;30.568;2022-08-18T13:31:54;101617.00;;;32.60
73937;BMP180;59249;59.736;30.568;2022-08-18T13:34:26;101622.00;;;32.60
73937;BMP180;59249;59.736;30.568;2022-08-18T13:36:56;101621.00;;;32.60
73937;BMP180;59249;59.736;30.568;2022-08-18T13:39:25;101621.00;;;32.60
73937;BMP180;59249;59.736;30.568;2022-08-18T13:42:00;101621.00;;;32.50
73937;BMP180;59249;59.736;30.568;2022-08-18T13:44:51;101623.00;;;32.50
73937;BMP180;59249;59.736;30.568;2022-08-18T13:47:23;101625.00;;;32.60
73937;BMP180;59249;59.736;30.568;2022-08-18T13:49:55;101622.00;;;32.60
73937;BMP180;59249;59.736;30.568;2022-08-18T13:52:27;101628.00;;;32.50
73937;BMP180;59249;59.736;30.568;2022-08-18T13:55:01;101627.00;;;32.50
73937;BMP180;59249;59.736;30.568;2022-08-18T13:57:36;101627.00;;;32.60
73937;BMP180;59249;59.736;30.568;2022-08-18T14:00:10;101628.00;;;32.70
73937;BMP180;59249;59.736;30.568;2022-08-18T14:02:46;101625.00;;;32.70
73937;BMP180;59249;59.736;30.568;2022-08-18T14:05:19;101619.00;;;32.90
73937;BMP180;59249;59.736;30.568;2022-08-18T14:08:08;101627.00;;;32.90
73937;BMP180;59249;59.736;30.568;2022-08-18T14:10:46;101624.00;;;32.80
73937;BMP180;59249;59.736;30.568;2022-08-18T14:13:26;101617.00;;;32.80
73937;BMP180;59249;59.736;30.568;2022-08-18T14:16:06;101628.00;;;32.70
73937;BMP180;59249;59.736;30.568;2022-08-18T14:18:36;101628.00;;;32.70
73937;BMP180;59249;59.736;30.568;2022-08-18T14:21:05;101621.00;;;32.60
73937;BMP180;59249;59.736;30.568;2022-08-18T14:23:53;101625.00;;;32.60
73937;BMP180;59249;59.736;30.568;2022-08-18T14:26:40;101625.00;;;32.50
73937;BMP180;59249;59.736;30.568;2022-08-18T14:29:17;101629.00;;;32.60
73937;BMP180;59249;59.736;30.568;2022-08-18T14:32:08;101623.00;;;32.50
73937;BMP180;59249;59.736;30.568;2022-08-18T14:34:44;101623.00;;;32.50
73937;BMP180;59249;59.736;30.568;2022-08-18T14:37:17;101627.00;;;32.60
73937;BMP180;59249;59.736;30.568;2022-08-18T14:39:46;101628.00;;;32.60
73937;BMP180;59249;59.736;30.568;2022-08-18T14:42:19;101626.00;;;32.50
73937;BMP180;59249;59.736;30.568;2022-08-18T14:45:09;101625.00;;;32.50
73937;BMP180;59249;59.736;30.568;2022-08-18T14:47:59;101624.00;;;32.40
73937;BMP180;59249;59.736;30.568;2022-08-18T14:50:34;101623.00;;;32.50
73937;BMP180;59249;59.736;30.568;2022-08-18T14:53:04;101628.00;;;32.40
73937;BMP180;59249;59.736;30.568;2022-08-18T14:55:33;101623.00;;;32.30
73937;BMP180;59249;59.736;30.568;2022-08-18T14:58:04;101632.00;;;32.20
73937;BMP180;59249;59.736;30.568;2022-08-18T15:00:34;101629.00;;;32.20
73937;BMP180;59249;59.736;30.568;2022-08-18T15:03:25;101628.00;;;32.00
73937;BMP180;59249;59.736;30.568;2022-08-18T15:05:58;101629.00;;;32.00
73937;BMP180;59249;59.736;30.568;2022-08-18T15:08:31;101631.00;;;31.90